Northfield, MN

10:56 AM CDT on September 25, 2016 (GMT -0500)
Spruce Court Weather | | Change Station

Elev 960 ft 44.45 °N, 93.17 °W | Updated 10 seconds ago

Scattered Clouds
Scattered Clouds
61.5 °F
Feels Like 61.5 °F
N
3.5
Wind Variable Wind from WSW
Gusts 3.5 mph

Today
High -- | Low -- °F
--% Chance of Precip.
Yesterday
High -- | Low -- °F
Precip. -- in
Pressure 29.92 in
Visibility 10.0 miles
Clouds Scattered Clouds 3000 ft
Dew Point 55 °F
Humidity 78%
Rainfall 0.17 in
Snow Depth Not available.
7:04 AM 7:03 PM
Waning Crescent, 27% visible
METAR KSYN 251533Z AUTO 25008KT 10SM SCT030 17/12 A2992 RMK AO2 T01660123
Pressure 29.92 in
Visibility 10.0 miles
Clouds Scattered Clouds 3000 ft
Dew Point 55 °F
Humidity 78%
Rainfall 0.17 in
Snow Depth Not available.
7:04 AM 7:03 PM
Waning Crescent, 27% visible
METAR KSYN 251533Z AUTO 25008KT 10SM SCT030 17/12 A2992 RMK AO2 T01660123

10-Day Weather Forecast

Almanac

Astronomy

Sep. 25, 2016 Rise Set
Actual Time
Civil Twilight
Nautical Twilight
Astronomical Twilight
Moon
Length of Visible Light
Length of Day
Tomorrow will be .
, % of the Moon is Illuminated

Today's Extremes

State Highs State Lows

Community

WunderPhotos

Upload Photos

1,941,644 photos uploaded!

WunderBlog® & News

Nearby

Air Quality

  Air Quality AQ Index Pollutant
Not available.

Snow Depth

Station Depth Elevation

Earthquake Activity

City Distance Mag. Time & Date
Minimum magnitude displayed is 2.5.

Coastal Water Temperatures

Place Temperature

Stations

Nearby Weather Stations

Station Location Temp. Windchill Dew Point Humidity Wind Precip. Elev Updated Type
                   

Watches & Warnings

There are currently no watches in effect.